Time;durP1;ratioP1;P1;durP2;ratioP2;P2;SDS_P1;SDS_P2;PMS_P1;PMS_P2;Temp;Humidity;BMP_temperature;BMP_pressure;BME280_temperature;BME280_humidity;BME280_pressure;Samples;Min_cycle;Max_cycle;Signal;HPM_P1;HPM_P2
2020/12/05 00:01:12;;;;;;;6.70;5.88;;;;;;;;;;5073486;28;20288;-79
2020/12/05 00:03:39;;;;;;;7.00;6.30;;;;;;;;;;5077216;28;20276;-78
2020/12/05 00:06:06;;;;;;;7.40;6.70;;;;;;;;;;5083285;28;20644;-79
2020/12/05 00:08:33;;;;;;;6.82;5.63;;;;;;;;;;5091452;28;20305;-78
2020/12/05 00:11:01;;;;;;;7.38;6.22;;;;;;;;;;5091179;28;20216;-78
2020/12/05 00:13:28;;;;;;;6.45;5.70;;;;;;;;;;5091503;28;20250;-78
2020/12/05 00:15:55;;;;;;;7.45;6.47;;;;;;;;;;5072804;28;20591;-78
2020/12/05 00:18:22;;;;;;;7.30;6.18;;;;;;;;;;5073396;28;20693;-78
2020/12/05 00:20:49;;;;;;;8.55;5.90;;;;;;;;;;5073362;28;20226;-78
2020/12/05 00:23:15;;;;;;;7.85;6.72;;;;;;;;;;5073283;28;20674;-79
2020/12/05 00:25:42;;;;;;;5.78;5.18;;;;;;;;;;5076632;28;20312;-78
2020/12/05 00:28:09;;;;;;;7.97;6.63;;;;;;;;;;5072507;28;20281;-79
2020/12/05 00:30:36;;;;;;;7.45;6.53;;;;;;;;;;5070776;28;20222;-80
2020/12/05 00:33:03;;;;;;;6.30;5.55;;;;;;;;;;5071005;28;20590;-79
2020/12/05 00:35:30;;;;;;;8.20;6.15;;;;;;;;;;5069878;28;20284;-78
2020/12/05 00:37:57;;;;;;;7.35;6.65;;;;;;;;;;5072412;28;20202;-78
2020/12/05 00:40:24;;;;;;;8.35;6.88;;;;;;;;;;5073428;28;20289;-78
2020/12/05 00:42:51;;;;;;;7.85;6.80;;;;;;;;;;5074409;28;20197;-78
2020/12/05 00:45:19;;;;;;;7.78;6.93;;;;;;;;;;5075766;28;20241;-77
2020/12/05 00:47:46;;;;;;;9.93;7.55;;;;;;;;;;5076963;28;20185;-77
2020/12/05 00:50:12;;;;;;;8.48;7.68;;;;;;;;;;5073595;28;20277;-78
2020/12/05 00:52:39;;;;;;;9.23;7.35;;;;;;;;;;5070793;28;20289;-78
2020/12/05 00:55:06;;;;;;;9.43;7.82;;;;;;;;;;5070505;28;20304;-77
2020/12/05 00:57:33;;;;;;;8.38;6.78;;;;;;;;;;5072964;28;20285;-78
2020/12/05 01:00:00;;;;;;;10.13;7.60;;;;;;;;;;5075922;28;20285;-77
2020/12/05 01:02:27;;;;;;;9.43;8.10;;;;;;;;;;5076894;28;20198;-78
2020/12/05 01:04:54;;;;;;;8.85;7.78;;;;;;;;;;5076384;28;20218;-78
2020/12/05 01:07:25;;;;;;;8.10;7.07;;;;;;;;;;5076429;28;20205;-78
2020/12/05 01:09:51;;;;;;;12.90;8.40;;;;;;;;;;5080148;28;20186;-79
2020/12/05 01:12:18;;;;;;;10.20;8.23;;;;;;;;;;5086651;28;20642;-79
2020/12/05 01:14:45;;;;;;;12.35;9.60;;;;;;;;;;5094013;28;20588;-79
2020/12/05 01:17:12;;;;;;;10.38;8.70;;;;;;;;;;5094038;28;20696;-78
2020/12/05 01:19:39;;;;;;;10.55;8.90;;;;;;;;;;5094314;28;20200;-77
2020/12/05 01:22:06;;;;;;;11.77;9.43;;;;;;;;;;5075796;28;20304;-77
2020/12/05 01:24:33;;;;;;;10.57;8.52;;;;;;;;;;5075986;28;20213;-79
2020/12/05 01:27:00;;;;;;;13.00;9.55;;;;;;;;;;5076142;28;20335;-79
2020/12/05 01:29:27;;;;;;;11.93;8.75;;;;;;;;;;5076160;28;20216;-78
2020/12/05 01:31:54;;;;;;;10.88;8.70;;;;;;;;;;5079676;28;20194;-78
2020/12/05 01:34:20;;;;;;;12.07;9.60;;;;;;;;;;5085893;28;20546;-78
2020/12/05 01:36:48;;;;;;;12.10;9.43;;;;;;;;;;5093830;28;20664;-78
2020/12/05 01:39:15;;;;;;;10.75;9.25;;;;;;;;;;5093527;28;20204;-78
2020/12/05 01:41:41;;;;;;;14.93;10.18;;;;;;;;;;5094324;28;20194;-76
2020/12/05 01:44:08;;;;;;;13.13;9.90;;;;;;;;;;5075164;28;20198;-77
2020/12/05 01:46:38;;;;;;;11.80;8.60;;;;;;;;;;5075763;28;20305;-77
2020/12/05 01:49:05;;;;;;;10.88;9.27;;;;;;;;;;5076065;28;20206;-78
2020/12/05 01:51:32;;;;;;;12.50;9.88;;;;;;;;;;5075623;28;20202;-78
2020/12/05 01:54:00;;;;;;;12.88;10.10;;;;;;;;;;5079305;28;20658;-78
2020/12/05 01:56:28;;;;;;;12.02;9.50;;;;;;;;;;5085553;28;20678;-79
2020/12/05 01:58:55;;;;;;;12.60;10.23;;;;;;;;;;5093494;28;20650;-77
2020/12/05 02:01:23;;;;;;;12.60;9.75;;;;;;;;;;5093269;28;20200;-79
2020/12/05 02:03:51;;;;;;;13.65;10.27;;;;;;;;;;5093185;28;20225;-79
2020/12/05 02:06:24;;;;;;;13.43;9.95;;;;;;;;;;5075021;28;20233;-79
2020/12/05 02:08:55;;;;;;;12.00;10.50;;;;;;;;;;5074256;28;20619;-78
2020/12/05 02:11:25;;;;;;;13.88;10.30;;;;;;;;;;5074129;28;20293;-78
2020/12/05 02:13:56;;;;;;;13.40;11.35;;;;;;;;;;5074277;28;20201;-78
2020/12/05 02:16:23;;;;;;;13.65;10.40;;;;;;;;;;5078941;28;20563;-78
2020/12/05 02:18:52;;;;;;;16.15;11.48;;;;;;;;;;5085896;28;20195;-78
2020/12/05 02:21:19;;;;;;;13.50;10.73;;;;;;;;;;5093421;28;20189;-77
2020/12/05 02:23:47;;;;;;;15.02;11.98;;;;;;;;;;5093075;28;20196;-78
2020/12/05 02:26:14;;;;;;;14.00;10.93;;;;;;;;;;5089502;28;20228;-79
2020/12/05 02:28:41;;;;;;;18.60;12.50;;;;;;;;;;5074996;28;20620;-79
2020/12/05 02:31:08;;;;;;;16.00;11.80;;;;;;;;;;5074972;28;20289;-79
2020/12/05 02:33:35;;;;;;;15.48;11.13;;;;;;;;;;5074624;28;20216;-79
2020/12/05 02:36:02;;;;;;;16.17;12.90;;;;;;;;;;5075144;28;20221;-79
2020/12/05 02:38:31;;;;;;;16.42;12.43;;;;;;;;;;5078609;28;20194;-77
2020/12/05 02:40:59;;;;;;;15.60;12.23;;;;;;;;;;5073956;28;20195;-78
2020/12/05 02:43:27;;;;;;;15.73;11.45;;;;;;;;;;5072306;28;20664;-78
2020/12/05 02:45:54;;;;;;;16.42;12.95;;;;;;;;;;5072101;28;20309;-78
2020/12/05 02:48:21;;;;;;;16.65;12.05;;;;;;;;;;5072426;28;20200;-78
2020/12/05 02:50:48;;;;;;;16.10;12.02;;;;;;;;;;5074543;28;20213;-78
2020/12/05 02:53:14;;;;;;;17.25;12.93;;;;;;;;;;5074628;28;20203;-78
2020/12/05 02:55:41;;;;;;;16.83;12.30;;;;;;;;;;5074515;28;20309;-78
2020/12/05 02:58:09;;;;;;;16.65;12.40;;;;;;;;;;5074838;28;20285;-77
2020/12/05 03:00:35;;;;;;;18.90;12.32;;;;;;;;;;5077996;28;20201;-79
2020/12/05 03:03:02;;;;;;;17.88;12.02;;;;;;;;;;5073540;28;20678;-78
2020/12/05 03:05:29;;;;;;;17.17;12.48;;;;;;;;;;5071883;28;20222;-78
2020/12/05 03:07:58;;;;;;;16.35;11.80;;;;;;;;;;5071886;28;20669;-77
2020/12/05 03:10:25;;;;;;;16.23;11.90;;;;;;;;;;5071818;28;20198;-78
2020/12/05 03:12:51;;;;;;;17.15;12.05;;;;;;;;;;5074070;28;20216;-78
2020/12/05 03:15:19;;;;;;;15.20;12.00;;;;;;;;;;5073766;28;20584;-78
2020/12/05 03:17:46;;;;;;;22.38;14.10;;;;;;;;;;5074051;28;20191;-78
2020/12/05 03:20:13;;;;;;;18.92;13.40;;;;;;;;;;5074369;28;20673;-77
2020/12/05 03:22:40;;;;;;;19.73;13.20;;;;;;;;;;5077698;28;20326;-79
2020/12/05 03:25:06;;;;;;;18.52;13.23;;;;;;;;;;5086547;28;20296;-79
2020/12/05 03:27:33;;;;;;;20.27;14.05;;;;;;;;;;5091552;28;20309;-78
2020/12/05 03:30:00;;;;;;;19.83;14.38;;;;;;;;;;5092063;28;20280;-79
2020/12/05 03:32:30;;;;;;;22.85;14.75;;;;;;;;;;5088015;28;20202;-78
2020/12/05 03:35:03;;;;;;;17.05;13.80;;;;;;;;;;5073723;28;20253;-77
2020/12/05 03:37:36;;;;;;;21.63;14.27;;;;;;;;;;5073783;28;20730;-79
2020/12/05 03:40:09;;;;;;;17.35;12.80;;;;;;;;;;5073623;28;20191;-78
2020/12/05 03:42:40;;;;;;;18.30;13.35;;;;;;;;;;5074809;28;20921;-77
2020/12/05 03:45:12;;;;;;;17.05;12.50;;;;;;;;;;5077266;28;20224;-78
2020/12/05 03:47:45;;;;;;;18.20;13.32;;;;;;;;;;5071951;28;20204;-76
2020/12/05 03:50:17;;;;;;;23.95;16.02;;;;;;;;;;5071153;28;20189;-78
2020/12/05 03:52:48;;;;;;;22.13;15.20;;;;;;;;;;5071569;28;20297;-79
2020/12/05 03:55:20;;;;;;;23.65;16.58;;;;;;;;;;5072107;28;20225;-78
2020/12/05 03:57:52;;;;;;;20.33;13.93;;;;;;;;;;5073578;28;20190;-78
2020/12/05 04:00:24;;;;;;;18.85;14.93;;;;;;;;;;5073707;28;20194;-79
2020/12/05 04:02:56;;;;;;;20.83;14.75;;;;;;;;;;5073613;28;20281;-79
2020/12/05 04:05:33;;;;;;;22.15;15.68;;;;;;;;;;5075905;28;20214;-79
2020/12/05 04:08:05;;;;;;;19.67;15.00;;;;;;;;;;5076273;28;20193;-76
2020/12/05 04:10:37;;;;;;;23.90;15.30;;;;;;;;;;5070805;28;20281;-77
2020/12/05 04:13:08;;;;;;;20.50;15.05;;;;;;;;;;5071138;28;20582;-78
2020/12/05 04:15:40;;;;;;;21.80;15.90;;;;;;;;;;5070879;28;20232;-78
2020/12/05 04:18:13;;;;;;;24.38;16.00;;;;;;;;;;5072405;28;20198;-77
2020/12/05 04:20:45;;;;;;;21.33;15.13;;;;;;;;;;5072206;28;20666;-79
2020/12/05 04:23:16;;;;;;;22.38;15.82;;;;;;;;;;5073407;28;20281;-78
2020/12/05 04:25:48;;;;;;;21.80;15.27;;;;;;;;;;5073186;28;20313;-77
2020/12/05 04:28:20;;;;;;;19.50;14.90;;;;;;;;;;5076924;28;20204;-78
2020/12/05 04:30:52;;;;;;;20.88;15.07;;;;;;;;;;5083508;28;20280;-76
2020/12/05 04:33:24;;;;;;;22.88;15.88;;;;;;;;;;5094899;28;20197;-78
2020/12/05 04:35:56;;;;;;;20.88;15.15;;;;;;;;;;5094866;28;20217;-76
2020/12/05 04:38:27;;;;;;;21.20;15.57;;;;;;;;;;5092960;28;20197;-78
2020/12/05 04:41:01;;;;;;;27.02;16.52;;;;;;;;;;5077075;28;20298;-77
2020/12/05 04:43:33;;;;;;;24.50;16.50;;;;;;;;;;5076949;28;20304;-78
2020/12/05 04:46:05;;;;;;;21.48;15.88;;;;;;;;;;5076651;28;20226;-77
2020/12/05 04:48:41;;;;;;;19.35;14.57;;;;;;;;;;5077558;28;20712;-75
2020/12/05 04:51:19;;;;;;;21.17;14.93;;;;;;;;;;5081080;28;20193;-78
2020/12/05 04:53:52;;;;;;;24.35;15.80;;;;;;;;;;5074665;28;20323;-76
2020/12/05 04:56:24;;;;;;;22.45;15.45;;;;;;;;;;5074217;28;20571;-76
2020/12/05 04:58:55;;;;;;;23.85;17.08;;;;;;;;;;5074373;28;20328;-77
2020/12/05 05:01:29;;;;;;;22.38;15.35;;;;;;;;;;5074910;28;20283;-75
2020/12/05 05:04:02;;;;;;;24.70;16.30;;;;;;;;;;5076933;28;20205;-78
2020/12/05 05:06:34;;;;;;;19.67;15.02;;;;;;;;;;5076553;28;20227;-79
2020/12/05 05:09:05;;;;;;;25.27;16.55;;;;;;;;;;5076608;28;20201;-78
2020/12/05 05:11:40;;;;;;;21.88;16.05;;;;;;;;;;5078619;28;20189;-77
2020/12/05 05:14:13;;;;;;;22.58;15.50;;;;;;;;;;5079148;28;20186;-76
2020/12/05 05:16:45;;;;;;;28.75;17.80;;;;;;;;;;5073575;28;20198;-78
2020/12/05 05:19:25;;;;;;;22.13;15.32;;;;;;;;;;5073974;28;20352;-76
2020/12/05 05:21:57;;;;;;;24.25;15.45;;;;;;;;;;5073056;28;20201;-76
2020/12/05 05:24:29;;;;;;;25.35;17.70;;;;;;;;;;5075399;28;20281;-77
2020/12/05 05:27:04;;;;;;;24.42;16.52;;;;;;;;;;5076172;28;20244;-78
2020/12/05 05:29:39;;;;;;;24.35;15.70;;;;;;;;;;5075045;28;20194;-79
2020/12/05 05:32:14;;;;;;;26.92;16.65;;;;;;;;;;5075036;28;20647;-76
2020/12/05 05:34:49;;;;;;;27.85;15.15;;;;;;;;;;5079620;28;20621;-77
2020/12/05 05:37:22;;;;;;;23.75;16.17;;;;;;;;;;5075544;28;20565;-77
2020/12/05 05:39:56;;;;;;;23.98;16.63;;;;;;;;;;5064398;28;20190;-78
2020/12/05 05:42:32;;;;;;;21.95;15.20;;;;;;;;;;5119721;27;20263;-77
2020/12/05 05:45:19;;;;;;;24.02;17.05;;;;;;;;;;5081246;28;20214;-77
2020/12/05 05:47:51;;;;;;;24.00;14.80;;;;;;;;;;5078610;28;20221;-77
2020/12/05 05:50:28;;;;;;;29.90;17.45;;;;;;;;;;5090182;28;20279;-77
2020/12/05 05:53:01;;;;;;;27.67;17.15;;;;;;;;;;5092485;28;20231;-78
2020/12/05 05:55:47;;;;;;;20.85;15.63;;;;;;;;;;5093349;28;20240;-76
2020/12/05 05:58:20;;;;;;;26.95;18.25;;;;;;;;;;5063943;28;20285;-76
2020/12/05 06:00:53;;;;;;;21.33;14.95;;;;;;;;;;5075754;28;20281;-76
2020/12/05 06:03:27;;;;;;;23.73;16.08;;;;;;;;;;5074380;28;20277;-78
2020/12/05 06:06:00;;;;;;;24.55;15.70;;;;;;;;;;5075006;28;20227;-76
2020/12/05 06:08:35;;;;;;;23.27;16.15;;;;;;;;;;5077930;28;20194;-76
2020/12/05 06:11:08;;;;;;;23.20;15.43;;;;;;;;;;5081063;28;20235;-78
2020/12/05 06:13:41;;;;;;;22.92;16.02;;;;;;;;;;5079048;28;20617;-76
2020/12/05 06:16:13;;;;;;;26.42;15.82;;;;;;;;;;5071626;28;20240;-78
2020/12/05 06:18:45;;;;;;;24.65;15.95;;;;;;;;;;5072377;28;20209;-75
2020/12/05 06:21:18;;;;;;;24.92;15.98;;;;;;;;;;5074335;28;20201;-77
2020/12/05 06:23:54;;;;;;;28.08;17.50;;;;;;;;;;5075142;28;20645;-78
2020/12/05 06:26:35;;;;;;;24.65;15.90;;;;;;;;;;5074933;28;20222;-77
2020/12/05 06:29:07;;;;;;;23.90;16.77;;;;;;;;;;5073855;28;20212;-77
2020/12/05 06:31:48;;;;;;;25.85;15.85;;;;;;;;;;5078986;28;20276;-77
2020/12/05 06:34:40;;;;;;;24.70;15.38;;;;;;;;;;5086925;28;20277;-76
2020/12/05 06:37:14;;;;;;;23.40;15.70;;;;;;;;;;5092497;28;20204;-75
2020/12/05 06:39:45;;;;;;;21.83;15.68;;;;;;;;;;5091734;28;20200;-76
2020/12/05 06:42:23;;;;;;;23.60;15.25;;;;;;;;;;5084233;28;20552;-76
2020/12/05 06:44:55;;;;;;;24.67;15.00;;;;;;;;;;5073441;28;20309;-76
2020/12/05 06:47:29;;;;;;;26.02;15.77;;;;;;;;;;5074645;28;20226;-77
2020/12/05 06:50:01;;;;;;;23.00;15.57;;;;;;;;;;5078392;28;20285;-77
2020/12/05 06:52:40;;;;;;;19.58;13.98;;;;;;;;;;5079319;28;20186;-76
2020/12/05 06:55:13;;;;;;;20.60;14.15;;;;;;;;;;5064217;28;20221;-78
2020/12/05 06:57:46;;;;;;;18.50;13.50;;;;;;;;;;5081969;28;20255;-76
2020/12/05 07:00:20;;;;;;;18.38;12.52;;;;;;;;;;5081137;28;20209;-75
2020/12/05 07:02:56;;;;;;;17.40;12.07;;;;;;;;;;5072704;28;20292;-76
2020/12/05 07:05:29;;;;;;;15.90;12.65;;;;;;;;;;5073447;28;20698;-76
2020/12/05 07:08:02;;;;;;;18.23;11.82;;;;;;;;;;5072992;28;20225;-77
2020/12/05 07:10:50;;;;;;;17.42;12.57;;;;;;;;;;5076846;28;20280;-75
2020/12/05 07:13:22;;;;;;;15.05;10.43;;;;;;;;;;5081933;28;20284;-77
2020/12/05 07:15:54;;;;;;;16.58;11.50;;;;;;;;;;5091854;28;20221;-76
2020/12/05 07:18:33;;;;;;;16.52;12.35;;;;;;;;;;5091775;28;20292;-76
2020/12/05 07:21:05;;;;;;;15.77;10.48;;;;;;;;;;5090750;28;20205;-76
2020/12/05 07:23:38;;;;;;;13.85;10.90;;;;;;;;;;5073846;28;20651;-78
2020/12/05 07:26:10;;;;;;;14.30;10.90;;;;;;;;;;5073982;28;20214;-76
2020/12/05 07:28:42;;;;;;;14.25;10.63;;;;;;;;;;5073944;28;20205;-77
2020/12/05 07:31:14;;;;;;;14.23;10.85;;;;;;;;;;5073130;28;20551;-76
2020/12/05 07:33:46;;;;;;;15.20;10.77;;;;;;;;;;5077536;28;20204;-76
2020/12/05 07:36:19;;;;;;;12.50;9.85;;;;;;;;;;5086902;28;20749;-76
2020/12/05 07:38:52;;;;;;;13.85;9.70;;;;;;;;;;5091590;28;20554;-79
2020/12/05 07:41:25;;;;;;;11.77;9.43;;;;;;;;;;5091607;28;20654;-76
2020/12/05 07:44:01;;;;;;;14.27;9.63;;;;;;;;;;5084056;28;20555;-77
2020/12/05 07:46:34;;;;;;;13.07;9.55;;;;;;;;;;5073602;28;20307;-77
2020/12/05 07:49:06;;;;;;;10.75;9.00;;;;;;;;;;5073732;28;20284;-78
2020/12/05 07:51:38;;;;;;;11.75;8.75;;;;;;;;;;5073683;28;20280;-76
2020/12/05 07:54:15;;;;;;;9.98;8.25;;;;;;;;;;5075396;28;20335;-75
2020/12/05 07:56:46;;;;;;;11.32;8.70;;;;;;;;;;5077238;28;20196;-77
2020/12/05 07:59:18;;;;;;;10.20;8.20;;;;;;;;;;5071109;28;20497;-78
2020/12/05 08:01:59;;;;;;;10.57;8.60;;;;;;;;;;5071083;28;20201;-76
2020/12/05 08:04:45;;;;;;;14.60;10.23;;;;;;;;;;5071307;28;20209;-78
2020/12/05 08:07:26;;;;;;;11.48;8.90;;;;;;;;;;5075046;28;20309;-76
2020/12/05 08:10:00;;;;;;;10.95;8.38;;;;;;;;;;5077777;28;20292;-76
2020/12/05 08:12:41;;;;;;;10.35;7.97;;;;;;;;;;5077657;28;20648;-76
2020/12/05 08:15:12;;;;;;;9.82;7.68;;;;;;;;;;5077359;28;20233;-76
2020/12/05 08:17:45;;;;;;;10.85;7.97;;;;;;;;;;5081340;28;20200;-77
2020/12/05 08:20:17;;;;;;;8.90;7.60;;;;;;;;;;5090183;28;20677;-80
2020/12/05 08:22:48;;;;;;;12.15;8.20;;;;;;;;;;5075643;28;20297;-77
2020/12/05 08:25:22;;;;;;;11.77;9.23;;;;;;;;;;5062811;28;20639;-77
2020/12/05 08:27:54;;;;;;;10.25;7.45;;;;;;;;;;5065959;28;20300;-75
2020/12/05 08:30:26;;;;;;;9.93;8.02;;;;;;;;;;5080635;28;20202;-78
2020/12/05 08:33:06;;;;;;;9.10;6.90;;;;;;;;;;5088947;28;20205;-76
2020/12/05 08:35:38;;;;;;;8.82;6.78;;;;;;;;;;5054900;28;20302;-77
2020/12/05 08:38:11;;;;;;;10.80;6.72;;;;;;;;;;5055087;28;20556;-77
2020/12/05 08:40:44;;;;;;;13.52;6.93;;;;;;;;;;5060765;28;20289;-77
2020/12/05 08:43:16;;;;;;;9.25;7.30;;;;;;;;;;5077036;28;20529;-77
2020/12/05 08:45:48;;;;;;;9.85;7.97;;;;;;;;;;5076755;28;20272;-76
2020/12/05 08:48:21;;;;;;;7.63;6.78;;;;;;;;;;5068507;28;20578;-77
2020/12/05 08:50:53;;;;;;;9.85;7.60;;;;;;;;;;5064263;28;20223;-76
2020/12/05 08:53:26;;;;;;;7.18;6.35;;;;;;;;;;5080642;28;20236;-78
2020/12/05 08:55:59;;;;;;;8.80;6.57;;;;;;;;;;5070901;28;20714;-78
2020/12/05 08:58:30;;;;;;;7.78;6.85;;;;;;;;;;5065703;28;20539;-76
2020/12/05 09:01:02;;;;;;;10.27;7.82;;;;;;;;;;5054287;28;20202;-77
2020/12/05 09:03:34;;;;;;;7.50;5.65;;;;;;;;;;5062682;28;20197;-76
2020/12/05 09:06:06;;;;;;;7.03;5.57;;;;;;;;;;5068806;28;20667;-77
2020/12/05 09:08:39;;;;;;;6.93;5.38;;;;;;;;;;5076151;28;20187;-75
2020/12/05 09:11:11;;;;;;;8.18;6.03;;;;;;;;;;5077522;28;20183;-79
2020/12/05 09:13:48;;;;;;;5.90;4.50;;;;;;;;;;5066544;28;20274;-84
2020/12/05 09:16:20;;;;;;;4.75;4.03;;;;;;;;;;5053679;28;20699;-81
2020/12/05 09:18:53;;;;;;;4.30;3.90;;;;;;;;;;5059510;28;20277;-75
2020/12/05 09:21:26;;;;;;;4.55;3.60;;;;;;;;;;5064939;28;20626;-75
2020/12/05 09:24:05;;;;;;;4.53;3.90;;;;;;;;;;5065609;28;20187;-76
2020/12/05 09:26:38;;;;;;;3.50;2.83;;;;;;;;;;5079216;28;20692;-75
2020/12/05 09:29:10;;;;;;;10.32;3.85;;;;;;;;;;5058573;28;20193;-75
2020/12/05 09:31:53;;;;;;;3.72;3.33;;;;;;;;;;5053831;28;20663;-76
2020/12/05 09:34:39;;;;;;;4.78;3.42;;;;;;;;;;5067243;28;20233;-79
2020/12/05 09:37:19;;;;;;;4.85;3.10;;;;;;;;;;5074016;28;20198;-76
2020/12/05 09:39:51;;;;;;;3.00;2.60;;;;;;;;;;5074301;28;20205;-80
2020/12/05 09:42:23;;;;;;;3.20;2.90;;;;;;;;;;5072164;28;20287;-80
2020/12/05 09:44:50;;;;;;;3.03;2.60;;;;;;;;;;5071376;28;20612;-77
2020/12/05 09:47:17;;;;;;;2.80;2.25;;;;;;;;;;5074244;28;21065;-77
2020/12/05 09:49:43;;;;;;;2.20;1.95;;;;;;;;;;5075660;28;20194;-76
2020/12/05 09:52:10;;;;;;;2.47;2.22;;;;;;;;;;5069503;28;20595;-78
2020/12/05 09:54:37;;;;;;;4.00;2.40;;;;;;;;;;5070668;28;20789;-77
2020/12/05 09:57:04;;;;;;;4.13;2.10;;;;;;;;;;5069813;28;20564;-77
2020/12/05 09:59:32;;;;;;;3.65;1.92;;;;;;;;;;5070120;28;20199;-76
2020/12/05 10:01:59;;;;;;;3.00;2.30;;;;;;;;;;5071778;28;20679;-76
2020/12/05 10:04:25;;;;;;;2.60;1.80;;;;;;;;;;5071421;28;20268;-77
2020/12/05 10:06:52;;;;;;;2.80;2.30;;;;;;;;;;5071749;28;20225;-76
2020/12/05 10:09:19;;;;;;;2.08;1.75;;;;;;;;;;5072866;28;20194;-77
2020/12/05 10:11:46;;;;;;;1.88;1.67;;;;;;;;;;5075348;28;20186;-78
2020/12/05 10:14:13;;;;;;;1.73;1.60;;;;;;;;;;5068717;28;20194;-76
2020/12/05 10:16:40;;;;;;;2.17;1.95;;;;;;;;;;5069283;28;20297;-75
2020/12/05 10:19:07;;;;;;;1.90;1.70;;;;;;;;;;5069625;28;20190;-77
2020/12/05 10:21:34;;;;;;;2.95;1.75;;;;;;;;;;5069768;28;20272;-78
2020/12/05 10:24:01;;;;;;;2.05;1.45;;;;;;;;;;5071240;28;20201;-77
2020/12/05 10:26:28;;;;;;;1.75;1.65;;;;;;;;;;5070923;28;20312;-78
2020/12/05 10:28:55;;;;;;;1.63;1.52;;;;;;;;;;5069800;28;20660;-77
2020/12/05 10:31:22;;;;;;;2.95;1.30;;;;;;;;;;5072032;28;20284;-76
2020/12/05 10:33:49;;;;;;;1.42;1.33;;;;;;;;;;5074647;28;20201;-78
2020/12/05 10:36:19;;;;;;;2.28;1.88;;;;;;;;;;5084909;28;20700;-76
2020/12/05 10:38:46;;;;;;;2.10;1.35;;;;;;;;;;5089261;28;20583;-81
2020/12/05 10:41:12;;;;;;;3.35;1.85;;;;;;;;;;5090815;28;20283;-76
2020/12/05 10:43:39;;;;;;;2.63;1.58;;;;;;;;;;5085261;28;20289;-78
2020/12/05 10:46:06;;;;;;;1.80;1.70;;;;;;;;;;5071984;28;20228;-78
2020/12/05 10:48:33;;;;;;;2.15;1.73;;;;;;;;;;5073087;28;20220;-76
2020/12/05 10:51:01;;;;;;;2.00;1.52;;;;;;;;;;5073072;28;20189;-77
2020/12/05 10:53:28;;;;;;;2.20;1.70;;;;;;;;;;5074829;28;20204;-75
2020/12/05 10:55:54;;;;;;;3.90;1.60;;;;;;;;;;5078196;28;20209;-77
2020/12/05 10:58:21;;;;;;;2.40;1.90;;;;;;;;;;5073988;28;20196;-76
2020/12/05 11:00:48;;;;;;;1.65;1.55;;;;;;;;;;5072349;28;20681;-78
2020/12/05 11:03:15;;;;;;;2.35;1.67;;;;;;;;;;5071957;28;20190;-76
2020/12/05 11:05:42;;;;;;;2.65;1.65;;;;;;;;;;5069846;28;20330;-83
2020/12/05 11:08:10;;;;;;;2.45;1.45;;;;;;;;;;5075168;28;20222;-76
2020/12/05 11:10:36;;;;;;;3.10;1.70;;;;;;;;;;5080022;28;20563;-77
2020/12/05 11:13:03;;;;;;;2.28;1.50;;;;;;;;;;5083397;28;20225;-75
2020/12/05 11:15:30;;;;;;;1.98;1.38;;;;;;;;;;5071064;28;20709;-75
2020/12/05 11:17:57;;;;;;;2.25;1.73;;;;;;;;;;5071598;28;20197;-76
2020/12/05 11:20:25;;;;;;;2.03;1.58;;;;;;;;;;5074514;28;20197;-77
2020/12/05 11:22:53;;;;;;;1.67;1.58;;;;;;;;;;5076951;28;20252;-75
2020/12/05 11:25:21;;;;;;;1.58;1.48;;;;;;;;;;5071155;28;20264;-76
2020/12/05 11:27:47;;;;;;;2.75;1.80;;;;;;;;;;5071583;28;20233;-77
2020/12/05 11:30:14;;;;;;;1.92;1.70;;;;;;;;;;5067179;28;20286;-77
2020/12/05 11:32:41;;;;;;;5.38;1.50;;;;;;;;;;5096523;28;20229;-74
2020/12/05 11:35:08;;;;;;;2.47;1.50;;;;;;;;;;5073652;28;20311;-78
2020/12/05 11:37:35;;;;;;;1.75;1.65;;;;;;;;;;5073575;28;20205;-78
2020/12/05 11:40:02;;;;;;;3.03;1.73;;;;;;;;;;5069749;28;20189;-75
2020/12/05 11:42:32;;;;;;;2.40;1.90;;;;;;;;;;5074863;28;20268;-78
2020/12/05 11:44:59;;;;;;;2.05;1.85;;;;;;;;;;5076828;28;20210;-77
2020/12/05 11:47:25;;;;;;;1.95;1.75;;;;;;;;;;5088917;28;20206;-78
2020/12/05 11:49:52;;;;;;;1.88;1.52;;;;;;;;;;5091667;28;20288;-78
2020/12/05 11:52:19;;;;;;;2.13;1.67;;;;;;;;;;5085225;28;20183;-76
2020/12/05 11:54:46;;;;;;;1.85;1.38;;;;;;;;;;5071977;28;20305;-77
2020/12/05 11:57:13;;;;;;;2.15;1.70;;;;;;;;;;5069380;28;20228;-77
2020/12/05 11:59:41;;;;;;;2.88;1.73;;;;;;;;;;5086293;28;20618;-76
2020/12/05 12:02:08;;;;;;;1.95;1.60;;;;;;;;;;5088958;28;20615;-76
2020/12/05 12:04:35;;;;;;;1.90;1.52;;;;;;;;;;5073145;28;20726;-75
2020/12/05 12:07:02;;;;;;;2.00;1.70;;;;;;;;;;5077223;28;20226;-76
2020/12/05 12:09:29;;;;;;;2.90;1.60;;;;;;;;;;5072956;28;20192;-77
2020/12/05 12:11:56;;;;;;;2.72;1.80;;;;;;;;;;5071263;28;20205;-77
2020/12/05 12:14:23;;;;;;;3.42;1.70;;;;;;;;;;5074541;28;20216;-77
2020/12/05 12:16:50;;;;;;;2.88;1.65;;;;;;;;;;5087799;28;20205;-75
2020/12/05 12:19:17;;;;;;;2.88;1.88;;;;;;;;;;5062661;28;20198;-76
2020/12/05 12:21:44;;;;;;;2.08;1.48;;;;;;;;;;5053141;28;20209;-77
2020/12/05 12:24:11;;;;;;;2.63;1.35;;;;;;;;;;5052958;28;20202;-77
2020/12/05 12:26:37;;;;;;;4.40;2.30;;;;;;;;;;5053075;28;20283;-76
2020/12/05 12:29:04;;;;;;;3.25;1.98;;;;;;;;;;5076879;28;20190;-77
2020/12/05 12:31:31;;;;;;;2.95;1.77;;;;;;;;;;5083742;28;20295;-74
2020/12/05 12:33:58;;;;;;;2.05;1.70;;;;;;;;;;5075520;28;20188;-76
2020/12/05 12:36:25;;;;;;;2.10;1.70;;;;;;;;;;5050677;28;20284;-74
2020/12/05 12:38:52;;;;;;;1.40;1.30;;;;;;;;;;5051227;28;20222;-76
2020/12/05 12:41:19;;;;;;;1.98;1.55;;;;;;;;;;5072936;28;20628;-75
2020/12/05 12:43:47;;;;;;;2.35;1.63;;;;;;;;;;5061090;28;20282;-74
2020/12/05 12:46:15;;;;;;;5.43;2.05;;;;;;;;;;5052975;28;20226;-77
2020/12/05 12:48:42;;;;;;;3.72;1.60;;;;;;;;;;5056948;28;20215;-79
2020/12/05 12:51:10;;;;;;;1.30;1.17;;;;;;;;;;5072466;28;20902;-79
2020/12/05 12:53:37;;;;;;;1.45;1.35;;;;;;;;;;5083451;28;20281;-77
2020/12/05 12:56:04;;;;;;;1.20;1.10;;;;;;;;;;5061884;28;20313;-76
2020/12/05 12:58:38;;;;;;;1.95;1.55;;;;;;;;;;5106345;28;20224;-79
2020/12/05 13:01:05;;;;;;;1.90;1.35;;;;;;;;;;5074612;28;20190;-78
2020/12/05 13:03:31;;;;;;;1.40;1.30;;;;;;;;;;5068816;28;20202;-77
2020/12/05 13:05:58;;;;;;;2.42;1.90;;;;;;;;;;5059522;28;20222;-77
2020/12/05 13:08:26;;;;;;;1.40;1.20;;;;;;;;;;5058327;28;20312;-78
2020/12/05 13:10:53;;;;;;;1.45;1.10;;;;;;;;;;5067231;28;20596;-78
2020/12/05 13:13:19;;;;;;;2.78;1.45;;;;;;;;;;5074014;28;20661;-77
2020/12/05 13:15:46;;;;;;;3.00;1.25;;;;;;;;;;5082979;28;20304;-76
2020/12/05 13:18:13;;;;;;;1.77;1.60;;;;;;;;;;5062898;28;20206;-76
2020/12/05 13:20:40;;;;;;;1.55;1.45;;;;;;;;;;5074315;28;20197;-78
2020/12/05 13:23:07;;;;;;;1.48;1.20;;;;;;;;;;5066300;28;20205;-78
2020/12/05 13:25:34;;;;;;;2.40;1.23;;;;;;;;;;5102722;28;20241;-78
2020/12/05 13:28:01;;;;;;;2.08;1.30;;;;;;;;;;5060101;28;20241;-78
2020/12/05 13:30:28;;;;;;;2.53;1.45;;;;;;;;;;5057112;28;20631;-80
2020/12/05 13:32:54;;;;;;;1.88;1.48;;;;;;;;;;5068590;28;20277;-76
2020/12/05 13:35:21;;;;;;;2.85;1.40;;;;;;;;;;5085495;28;20306;-76
2020/12/05 13:37:48;;;;;;;1.50;1.40;;;;;;;;;;5078650;28;20221;-77
2020/12/05 13:40:15;;;;;;;3.03;1.90;;;;;;;;;;5066549;28;20203;-76
2020/12/05 13:42:42;;;;;;;2.03;1.50;;;;;;;;;;5080102;28;20205;-77
2020/12/05 13:45:09;;;;;;;3.60;1.90;;;;;;;;;;5093159;28;20221;-77
2020/12/05 13:47:36;;;;;;;2.15;1.60;;;;;;;;;;5074506;28;20574;-76
2020/12/05 13:50:03;;;;;;;2.72;1.40;;;;;;;;;;5075193;28;20193;-77
2020/12/05 13:52:30;;;;;;;1.40;1.30;;;;;;;;;;5069708;28;20274;-77
2020/12/05 13:54:57;;;;;;;2.10;1.60;;;;;;;;;;5078884;28;20585;-76
2020/12/05 13:57:24;;;;;;;1.92;1.65;;;;;;;;;;5085293;28;20692;-78
2020/12/05 13:59:51;;;;;;;2.63;1.25;;;;;;;;;;5093627;28;20197;-80
2020/12/05 14:02:18;;;;;;;1.75;1.20;;;;;;;;;;5086110;28;20183;-77
2020/12/05 14:04:45;;;;;;;1.60;1.50;;;;;;;;;;5068761;28;20213;-76
2020/12/05 14:07:12;;;;;;;6.70;1.95;;;;;;;;;;5061267;28;20310;-76
2020/12/05 14:09:39;;;;;;;2.78;1.80;;;;;;;;;;5075456;28;20196;-76
2020/12/05 14:12:05;;;;;;;2.70;1.65;;;;;;;;;;5065146;28;20198;-76
2020/12/05 14:14:33;;;;;;;2.05;1.85;;;;;;;;;;5067690;28;20324;-76
2020/12/05 14:17:00;;;;;;;2.25;1.50;;;;;;;;;;5071638;28;20445;-76
2020/12/05 14:19:27;;;;;;;2.45;1.50;;;;;;;;;;5080163;28;20647;-77
2020/12/05 14:21:54;;;;;;;1.65;1.55;;;;;;;;;;5072350;28;20229;-78
2020/12/05 14:24:21;;;;;;;2.75;1.80;;;;;;;;;;5072273;28;20647;-78
2020/12/05 14:26:47;;;;;;;1.90;1.45;;;;;;;;;;5052883;28;20191;-77
2020/12/05 14:29:14;;;;;;;3.70;1.90;;;;;;;;;;5070633;28;20685;-78
2020/12/05 14:31:41;;;;;;;3.03;1.90;;;;;;;;;;5072364;28;20711;-79
2020/12/05 14:34:09;;;;;;;11.73;3.15;;;;;;;;;;5071713;28;20264;-79
2020/12/05 14:36:35;;;;;;;2.53;1.70;;;;;;;;;;5064624;28;20228;-77
2020/12/05 14:39:02;;;;;;;3.25;2.22;;;;;;;;;;5075978;28;20200;-76
2020/12/05 14:41:29;;;;;;;2.88;2.00;;;;;;;;;;5080770;28;20193;-76
2020/12/05 14:43:58;;;;;;;2.05;1.85;;;;;;;;;;5092082;28;20194;-76
2020/12/05 14:46:24;;;;;;;2.47;1.70;;;;;;;;;;5064592;28;20246;-75